Time;durP1;ratioP1;P1;durP2;ratioP2;P2;SDS_P1;SDS_P2;PMS_P1;PMS_P2;Temp;Humidity;BMP_temperature;BMP_pressure;BME280_temperature;BME280_humidity;BME280_pressure;Samples;Min_cycle;Max_cycle;Signal;HPM_P1;HPM_P2
2022/11/12 00:00:39;;;;;;;73.70;46.05;;;13.80;1.00;;;;;;5031891;28;20083;-64
2022/11/12 00:03:05;;;;;;;75.78;46.20;;;13.90;1.00;;;;;;5031806;28;20030;-63
2022/11/12 00:05:32;;;;;;;70.13;44.70;;;13.90;1.00;;;;;;5031656;28;20029;-63
2022/11/12 00:07:58;;;;;;;73.40;45.13;;;13.80;1.00;;;;;;5031770;28;20041;-63
2022/11/12 00:10:23;;;;;;;71.68;45.10;;;13.90;1.00;;;;;;5031824;28;20519;-64
2022/11/12 00:12:49;;;;;;;69.35;41.47;;;13.90;1.00;;;;;;5031749;28;20092;-63
2022/11/12 00:15:15;;;;;;;70.60;43.65;;;13.90;1.00;;;;;;5031741;28;20390;-64
2022/11/12 00:17:40;;;;;;;65.72;41.40;;;13.90;1.00;;;;;;5031480;28;20471;-64
2022/11/12 00:20:07;;;;;;;61.42;41.45;;;13.90;1.00;;;;;;5031798;28;20033;-64
2022/11/12 00:22:33;;;;;;;68.60;41.50;;;13.90;1.00;;;;;;5031700;28;20033;-64
2022/11/12 00:24:58;;;;;;;62.28;40.40;;;13.90;1.00;;;;;;5030070;28;20030;-63
2022/11/12 00:27:24;;;;;;;62.38;41.38;;;13.80;1.00;;;;;;5031307;28;20499;-64
2022/11/12 00:29:50;;;;;;;66.00;42.10;;;13.80;1.00;;;;;;5031464;28;20108;-63
2022/11/12 00:32:16;;;;;;;76.97;43.05;;;13.80;1.00;;;;;;5031483;28;20029;-63
2022/11/12 00:34:41;;;;;;;89.05;44.60;;;13.90;1.00;;;;;;5031246;28;20026;-63
2022/11/12 00:37:07;;;;;;;84.45;40.55;;;13.80;1.00;;;;;;5031785;28;20027;-63
2022/11/12 00:39:33;;;;;;;84.78;45.30;;;13.70;1.00;;;;;;5034977;28;20133;-64
2022/11/12 00:41:59;;;;;;;61.95;38.72;;;13.70;1.00;;;;;;5035512;28;20119;-64
2022/11/12 00:44:25;;;;;;;57.53;39.58;;;13.70;1.00;;;;;;5035404;28;20067;-63
2022/11/12 00:46:50;;;;;;;91.20;48.72;;;13.70;1.00;;;;;;5034666;28;20415;-63
2022/11/12 00:49:16;;;;;;;58.08;37.45;;;13.60;1.00;;;;;;5034899;28;20044;-64
2022/11/12 00:51:42;;;;;;;69.72;41.33;;;13.40;1.00;;;;;;5035076;28;20080;-63
2022/11/12 00:54:08;;;;;;;71.63;43.40;;;13.50;1.00;;;;;;5035135;28;20021;-63
2022/11/12 00:56:33;;;;;;;71.72;44.03;;;13.60;1.00;;;;;;5035285;28;20324;-63
2022/11/12 00:58:59;;;;;;;72.55;42.15;;;13.60;1.00;;;;;;5035191;28;20039;-64
2022/11/12 01:01:26;;;;;;;67.45;41.33;;;13.60;1.00;;;;;;5034974;28;20032;-64
2022/11/12 01:03:51;;;;;;;69.82;41.75;;;13.60;1.00;;;;;;5033642;28;20459;-63
2022/11/12 01:06:20;;;;;;;66.45;40.25;;;13.60;1.00;;;;;;5034607;28;20145;-63
2022/11/12 01:08:47;;;;;;;84.95;46.22;;;13.50;1.00;;;;;;5034349;28;20033;-63
2022/11/12 01:11:14;;;;;;;67.20;40.90;;;13.50;1.00;;;;;;5034825;28;20306;-63
2022/11/12 01:13:42;;;;;;;67.20;42.45;;;13.50;1.00;;;;;;5034666;28;20100;-64
2022/11/12 01:16:14;;;;;;;60.35;40.38;;;13.60;1.00;;;;;;5033431;28;20029;-63
2022/11/12 01:18:40;;;;;;;54.10;37.55;;;13.60;1.00;;;;;;5031244;28;20029;-64
2022/11/12 01:21:07;;;;;;;52.45;37.53;;;13.60;1.00;;;;;;5034520;28;20383;-63
2022/11/12 01:23:34;;;;;;;52.70;36.80;;;13.60;1.00;;;;;;5034556;28;20025;-63
2022/11/12 01:26:09;;;;;;;52.85;36.78;;;13.60;1.00;;;;;;5034053;28;20490;-64
2022/11/12 01:28:35;;;;;;;54.88;38.13;;;13.50;1.00;;;;;;5033819;28;20117;-64
2022/11/12 01:31:16;;;;;;;50.28;36.10;;;13.50;1.00;;;;;;5034468;28;20360;-63
2022/11/12 01:33:43;;;;;;;49.10;35.15;;;13.50;1.00;;;;;;5034567;28;20017;-64
2022/11/12 01:36:10;;;;;;;48.08;36.10;;;13.40;1.00;;;;;;5037925;28;20114;-64
2022/11/12 01:38:37;;;;;;;50.88;37.15;;;13.40;1.00;;;;;;5044406;28;20022;-63
2022/11/12 01:41:04;;;;;;;46.75;34.45;;;13.30;1.00;;;;;;5034335;28;20053;-63
2022/11/12 01:43:29;;;;;;;46.80;35.13;;;13.40;1.00;;;;;;5034358;28;20018;-63
2022/11/12 01:45:56;;;;;;;48.08;38.50;;;13.30;1.00;;;;;;5047753;28;20021;-64
2022/11/12 01:48:27;;;;;;;48.85;38.35;;;13.20;1.00;;;;;;5032130;28;20052;-64
2022/11/12 01:50:55;;;;;;;41.80;34.53;;;13.20;1.00;;;;;;5032980;28;20045;-63
2022/11/12 01:53:24;;;;;;;35.40;31.33;;;13.20;1.00;;;;;;5034035;28;20128;-63
2022/11/12 01:55:51;;;;;;;33.90;30.27;;;13.30;1.00;;;;;;5034127;28;20031;-63
2022/11/12 01:58:21;;;;;;;34.53;29.63;;;13.20;1.00;;;;;;5034004;28;20017;-64
2022/11/12 02:00:47;;;;;;;37.50;32.47;;;13.10;1.00;;;;;;5033887;28;20098;-63
2022/11/12 02:03:20;;;;;;;35.72;30.30;;;13.00;1.00;;;;;;5047816;28;20037;-63
2022/11/12 02:05:51;;;;;;;36.88;31.23;;;12.90;1.00;;;;;;5033876;28;20056;-64
2022/11/12 02:08:18;;;;;;;36.65;30.70;;;13.00;1.00;;;;;;5034109;28;20089;-63
2022/11/12 02:10:44;;;;;;;37.75;32.03;;;13.10;1.00;;;;;;5033782;28;20038;-64
2022/11/12 02:15:54;;;;;;;41.65;33.63;;;13.10;1.00;;;;;;5027057;28;20542;-63
2022/11/12 02:18:20;;;;;;;40.65;32.55;;;13.00;1.00;;;;;;5032287;28;20029;-63
2022/11/12 02:20:56;;;;;;;40.25;32.45;;;13.10;1.00;;;;;;5032765;28;20040;-63
2022/11/12 02:23:22;;;;;;;47.28;32.63;;;13.10;1.00;;;;;;5032900;28;20464;-63
2022/11/12 02:25:48;;;;;;;38.35;33.28;;;13.10;1.00;;;;;;5031803;28;20061;-63
2022/11/12 02:28:15;;;;;;;36.30;31.95;;;13.10;1.00;;;;;;5031962;28;20017;-63
2022/11/12 02:30:44;;;;;;;39.63;31.27;;;13.10;1.00;;;;;;5033411;28;20048;-63
2022/11/12 02:33:09;;;;;;;37.40;33.00;;;13.10;1.00;;;;;;5033466;28;20018;-63
2022/11/12 02:35:35;;;;;;;36.17;31.08;;;13.00;1.00;;;;;;5034311;28;20136;-63
2022/11/12 02:38:01;;;;;;;38.90;31.73;;;13.10;1.00;;;;;;5045999;28;20029;-64
2022/11/12 02:40:27;;;;;;;36.83;30.90;;;13.10;1.00;;;;;;5033291;28;20448;-64
2022/11/12 02:42:52;;;;;;;41.17;33.72;;;13.10;1.00;;;;;;5031649;28;20531;-64
2022/11/12 02:45:18;;;;;;;44.13;35.33;;;13.10;1.00;;;;;;5032131;28;20100;-63
2022/11/12 02:47:44;;;;;;;36.30;31.90;;;13.00;1.00;;;;;;5032801;28;20048;-63
2022/11/12 02:50:11;;;;;;;36.65;31.35;;;13.00;1.00;;;;;;5032615;28;20033;-64
2022/11/12 02:52:38;;;;;;;35.47;30.30;;;13.00;1.00;;;;;;5032830;28;20022;-64
2022/11/12 02:55:05;;;;;;;37.65;30.90;;;13.00;1.00;;;;;;5033007;28;20025;-64
2022/11/12 02:57:31;;;;;;;37.38;31.05;;;12.90;1.00;;;;;;5021851;28;20109;-64
2022/11/12 02:59:57;;;;;;;40.45;32.13;;;12.90;1.00;;;;;;5032589;28;20053;-64
2022/11/12 03:02:22;;;;;;;36.58;30.50;;;12.90;1.00;;;;;;5031443;28;20025;-63
2022/11/12 03:04:48;;;;;;;34.90;30.40;;;12.90;1.00;;;;;;5031289;28;20030;-63
2022/11/12 03:07:13;;;;;;;40.85;32.42;;;12.90;1.00;;;;;;5032815;28;20104;-63
2022/11/12 03:09:39;;;;;;;38.08;30.52;;;12.90;1.00;;;;;;5032496;28;20045;-64
2022/11/12 03:12:05;;;;;;;37.88;30.85;;;12.90;1.00;;;;;;5032554;28;20475;-63
2022/11/12 03:14:30;;;;;;;37.47;31.48;;;12.90;1.00;;;;;;5032829;28;20108;-63
2022/11/12 03:16:56;;;;;;;37.05;30.63;;;12.80;1.00;;;;;;5031188;28;20021;-63
2022/11/12 03:19:21;;;;;;;37.83;31.00;;;12.80;1.00;;;;;;5031604;28;20021;-63
2022/11/12 03:21:47;;;;;;;37.40;30.10;;;12.80;1.00;;;;;;5029717;28;20018;-64
2022/11/12 03:24:13;;;;;;;34.80;29.08;;;12.80;1.00;;;;;;5030554;28;20078;-63
2022/11/12 03:26:38;;;;;;;36.58;30.50;;;12.80;1.00;;;;;;5032875;28;20036;-63
2022/11/12 03:29:04;;;;;;;35.30;29.30;;;12.90;1.00;;;;;;5032352;28;20069;-63
2022/11/12 03:31:29;;;;;;;37.60;31.58;;;12.80;1.00;;;;;;5031910;28;20033;-63
2022/11/12 03:33:55;;;;;;;34.22;28.20;;;12.80;1.00;;;;;;5032355;28;20096;-63
2022/11/12 03:36:21;;;;;;;36.03;29.77;;;12.90;1.00;;;;;;5032290;28;20363;-63
2022/11/12 03:38:46;;;;;;;33.28;28.65;;;12.90;1.00;;;;;;5030991;28;20108;-63
2022/11/12 03:41:12;;;;;;;31.70;28.35;;;12.90;1.00;;;;;;5031762;28;20026;-63
2022/11/12 03:43:38;;;;;;;38.38;30.85;;;12.90;1.00;;;;;;5031972;28;20034;-63
2022/11/12 03:46:03;;;;;;;41.03;32.88;;;12.80;1.00;;;;;;5031836;28;20056;-63
2022/11/12 03:48:29;;;;;;;40.90;32.70;;;12.80;1.00;;;;;;5031498;28;20557;-63
2022/11/12 03:50:58;;;;;;;44.13;35.55;;;12.80;1.00;;;;;;5031517;28;20045;-63
2022/11/12 03:53:24;;;;;;;46.78;34.85;;;12.80;1.00;;;;;;5031806;28;20053;-63
2022/11/12 03:55:50;;;;;;;50.30;36.22;;;12.80;1.00;;;;;;5031726;28;20036;-63
2022/11/12 03:58:16;;;;;;;61.30;42.45;;;12.80;1.00;;;;;;5031747;28;20080;-63
2022/11/12 04:00:42;;;;;;;67.20;43.00;;;12.50;1.00;;;;;;5031895;28;20025;-63
2022/11/12 04:03:07;;;;;;;54.78;40.30;;;12.50;1.00;;;;;;5031633;28;20138;-63
2022/11/12 04:08:35;;;;;;;59.85;38.97;;;12.80;1.00;;;;;;5031838;28;20056;-63
2022/11/12 04:11:12;;;;;;;55.95;38.63;;;12.70;1.00;;;;;;5030020;28;20040;-63
2022/11/12 04:13:40;;;;;;;54.78;37.53;;;12.70;1.00;;;;;;5031041;28;20199;-63
2022/11/12 04:21:55;;;;;;;51.42;37.13;;;12.80;1.00;;;;;;5031513;28;20080;-63
2022/11/12 04:27:27;;;;;;;47.75;33.63;;;12.60;1.00;;;;;;5031459;28;20037;-63
2022/11/12 04:32:39;;;;;;;50.78;35.83;;;12.70;1.00;;;;;;5031360;28;20242;-63
2022/11/12 04:35:07;;;;;;;95.35;37.40;;;12.70;1.00;;;;;;5029601;28;20087;-63
2022/11/12 04:37:43;;;;;;;47.78;35.35;;;12.60;1.00;;;;;;5031152;28;20026;-63
2022/11/12 04:45:42;;;;;;;51.00;37.77;;;12.60;1.00;;;;;;5031402;28;20181;-64
2022/11/12 04:48:08;;;;;;;36.60;31.58;;;12.60;1.00;;;;;;5031177;28;20045;-63
2022/11/12 04:50:34;;;;;;;37.47;29.73;;;12.60;1.00;;;;;;5029616;28;20064;-63
2022/11/12 04:52:59;;;;;;;31.45;26.42;;;12.40;1.00;;;;;;5031305;28;20391;-63
2022/11/12 04:55:25;;;;;;;26.25;23.38;;;12.30;1.00;;;;;;5031177;28;20033;-64
2022/11/12 04:57:51;;;;;;;29.10;23.90;;;12.10;1.00;;;;;;5031444;28;20072;-63
2022/11/12 05:00:16;;;;;;;25.83;22.23;;;12.10;1.00;;;;;;5031088;28;20055;-63
2022/11/12 05:02:42;;;;;;;24.80;21.52;;;12.30;1.00;;;;;;5030846;28;20025;-63
2022/11/12 05:05:08;;;;;;;25.13;22.02;;;12.30;1.00;;;;;;5031090;28;20060;-63
2022/11/12 05:07:34;;;;;;;22.88;20.45;;;12.30;1.00;;;;;;5029695;28;20121;-63
2022/11/12 05:09:59;;;;;;;24.08;20.95;;;12.30;1.00;;;;;;5030687;28;20133;-63
2022/11/12 05:12:25;;;;;;;22.60;20.17;;;12.20;1.00;;;;;;5031343;28;20034;-63
2022/11/12 05:14:50;;;;;;;24.40;21.08;;;12.30;1.00;;;;;;5030887;28;20464;-63
2022/11/12 05:17:16;;;;;;;21.90;19.58;;;12.30;1.00;;;;;;5030872;28;20014;-63
2022/11/12 05:19:41;;;;;;;21.00;18.73;;;12.30;1.00;;;;;;5019345;28;20487;-63
2022/11/12 05:22:09;;;;;;;22.75;18.27;;;12.30;1.00;;;;;;5031038;28;20025;-63
2022/11/12 05:24:37;;;;;;;20.48;17.95;;;12.30;1.00;;;;;;5031340;28;20026;-63
2022/11/12 05:27:06;;;;;;;18.63;16.73;;;12.30;1.00;;;;;;5033249;28;20117;-63
2022/11/12 05:29:31;;;;;;;20.02;17.92;;;12.40;1.00;;;;;;5034334;28;20045;-63
2022/11/12 05:31:57;;;;;;;18.80;16.80;;;12.40;1.00;;;;;;5034467;28;20041;-63
2022/11/12 05:34:22;;;;;;;19.35;17.02;;;12.40;1.00;;;;;;5034314;28;20463;-63
2022/11/12 05:36:48;;;;;;;18.50;16.52;;;12.40;1.00;;;;;;5034475;28;20029;-63
2022/11/12 05:39:14;;;;;;;18.73;16.80;;;12.30;1.00;;;;;;5032630;28;20109;-63
2022/11/12 05:41:39;;;;;;;17.90;16.00;;;12.20;1.00;;;;;;5034369;28;20360;-63
2022/11/12 05:44:05;;;;;;;18.73;16.83;;;12.20;1.00;;;;;;5034012;28;20060;-63
2022/11/12 05:46:31;;;;;;;18.02;16.23;;;12.30;1.00;;;;;;5034256;28;20047;-63
2022/11/12 05:48:56;;;;;;;19.48;17.45;;;12.20;1.00;;;;;;5033930;28;20076;-63
2022/11/12 05:51:22;;;;;;;17.48;15.77;;;12.30;1.00;;;;;;5033862;28;20108;-63
2022/11/12 05:53:47;;;;;;;22.60;17.85;;;12.30;1.00;;;;;;5033932;28;20076;-63
2022/11/12 05:56:13;;;;;;;19.40;17.40;;;12.20;1.00;;;;;;5033935;28;20022;-63
2022/11/12 05:58:39;;;;;;;17.80;16.00;;;12.20;1.00;;;;;;5033973;28;20010;-63
2022/11/12 06:01:04;;;;;;;18.63;16.55;;;12.30;1.00;;;;;;5033915;28;20041;-63
2022/11/12 06:03:30;;;;;;;19.20;17.15;;;12.30;1.00;;;;;;5033662;28;20188;-63
2022/11/12 06:05:56;;;;;;;18.77;16.50;;;12.20;1.00;;;;;;5033955;28;20037;-63
2022/11/12 06:08:22;;;;;;;17.15;15.45;;;12.30;1.00;;;;;;5033797;28;20029;-63
2022/11/12 06:10:52;;;;;;;16.73;14.77;;;12.30;1.00;;;;;;5033747;28;20041;-63
2022/11/12 06:13:19;;;;;;;18.63;16.23;;;12.30;1.00;;;;;;5032149;28;20030;-63
2022/11/12 06:15:44;;;;;;;17.52;15.73;;;12.30;1.00;;;;;;5033522;28;20768;-63
2022/11/12 06:18:10;;;;;;;16.92;14.82;;;12.30;1.00;;;;;;5033200;28;20017;-63
2022/11/12 06:20:36;;;;;;;17.95;16.25;;;12.20;1.00;;;;;;5033510;28;20017;-63
2022/11/12 06:23:02;;;;;;;15.88;14.32;;;12.20;1.00;;;;;;5033394;28;20036;-63
2022/11/12 06:25:27;;;;;;;16.42;14.82;;;12.20;1.00;;;;;;5033280;28;20475;-63
2022/11/12 06:27:53;;;;;;;16.25;14.60;;;12.20;1.00;;;;;;5033274;28;20112;-63
2022/11/12 06:30:19;;;;;;;16.90;15.20;;;12.20;1.00;;;;;;5033145;28;20185;-63
2022/11/12 06:32:49;;;;;;;14.95;13.50;;;12.20;1.00;;;;;;5033351;28;20029;-63
2022/11/12 06:35:15;;;;;;;14.93;13.45;;;12.20;1.00;;;;;;5032575;28;20079;-63
2022/11/12 06:37:41;;;;;;;15.75;14.15;;;12.20;1.00;;;;;;5032965;28;20029;-63
2022/11/12 06:40:07;;;;;;;14.82;13.32;;;12.20;1.00;;;;;;5025830;28;20041;-63
2022/11/12 06:42:33;;;;;;;13.93;12.45;;;12.20;1.00;;;;;;5028124;28;20022;-63
2022/11/12 06:44:59;;;;;;;13.88;12.45;;;12.00;1.00;;;;;;5033038;28;20367;-63
2022/11/12 06:47:24;;;;;;;15.32;13.73;;;12.10;1.00;;;;;;5032771;28;20525;-63
2022/11/12 06:49:50;;;;;;;14.85;13.27;;;12.20;1.00;;;;;;5033071;28;20044;-62
2022/11/12 06:52:16;;;;;;;15.38;13.50;;;12.30;1.00;;;;;;5033104;28;20497;-63
2022/11/12 06:54:42;;;;;;;18.42;14.38;;;12.20;1.00;;;;;;5032564;28;20368;-63
2022/11/12 06:57:07;;;;;;;18.05;14.63;;;12.30;1.00;;;;;;5032745;28;20119;-63
2022/11/12 06:59:33;;;;;;;18.80;16.55;;;12.30;1.00;;;;;;5032620;28;20025;-62
2022/11/12 07:01:59;;;;;;;21.38;17.85;;;12.30;1.00;;;;;;5032551;28;20021;-63
2022/11/12 07:04:24;;;;;;;19.63;16.45;;;12.20;1.00;;;;;;5032323;28;20495;-63
2022/11/12 07:06:50;;;;;;;18.10;15.35;;;12.10;1.00;;;;;;5032871;28;20022;-63
2022/11/12 07:09:16;;;;;;;23.75;17.77;;;12.20;1.00;;;;;;5032463;28;20055;-63
2022/11/12 07:11:41;;;;;;;18.88;15.85;;;12.20;1.00;;;;;;5032608;28;20108;-63
2022/11/12 07:14:08;;;;;;;20.25;16.42;;;12.20;1.00;;;;;;5032468;28;20040;-63
2022/11/12 07:16:34;;;;;;;19.48;14.80;;;12.20;1.00;;;;;;5032404;28;20501;-63
2022/11/12 07:19:00;;;;;;;18.45;14.98;;;12.40;1.00;;;;;;5030089;28;20025;-62
2022/11/12 07:21:26;;;;;;;20.85;15.00;;;12.30;1.00;;;;;;5030262;28;20030;-63
2022/11/12 07:23:51;;;;;;;15.73;14.13;;;12.30;1.00;;;;;;5032179;28;20029;-63
2022/11/12 07:26:19;;;;;;;16.70;13.57;;;12.30;1.00;;;;;;5032211;28;20479;-62
2022/11/12 07:28:45;;;;;;;16.13;13.40;;;12.40;1.00;;;;;;5032143;28;20033;-63
2022/11/12 07:31:13;;;;;;;15.27;12.85;;;12.40;1.00;;;;;;5031905;28;20033;-63
2022/11/12 07:33:40;;;;;;;14.00;12.50;;;12.40;1.00;;;;;;5032414;28;20104;-62
2022/11/12 07:36:07;;;;;;;15.32;11.68;;;12.40;1.00;;;;;;5031685;28;20036;-63
2022/11/12 07:38:35;;;;;;;12.30;10.98;;;12.20;1.00;;;;;;5032087;28;20502;-62
2022/11/12 07:41:04;;;;;;;11.05;10.05;;;12.10;1.00;;;;;;5031724;28;20036;-62
2022/11/12 07:43:30;;;;;;;12.10;9.45;;;12.30;1.00;;;;;;5031258;28;20474;-62
2022/11/12 07:46:00;;;;;;;10.50;9.35;;;12.30;1.00;;;;;;5030510;28;20419;-63
2022/11/12 07:48:28;;;;;;;9.95;8.95;;;12.30;1.00;;;;;;5029261;28;20128;-62
2022/11/12 07:51:12;;;;;;;11.40;9.60;;;12.30;1.00;;;;;;5028688;28;20091;-63
2022/11/12 07:53:38;;;;;;;11.00;9.50;;;12.40;1.00;;;;;;5029902;28;20128;-63
2022/11/12 07:56:04;;;;;;;11.32;8.60;;;12.40;1.00;;;;;;5031335;28;20114;-62
2022/11/12 07:58:32;;;;;;;10.48;8.43;;;12.40;1.00;;;;;;5030233;28;20482;-62
2022/11/12 08:01:05;;;;;;;11.45;8.27;;;12.40;1.00;;;;;;5031804;28;20513;-62
2022/11/12 08:03:31;;;;;;;9.65;8.75;;;12.50;1.00;;;;;;5031304;28;20071;-62
2022/11/12 08:05:59;;;;;;;10.18;8.90;;;12.50;1.00;;;;;;5028918;28;20030;-62
2022/11/12 08:08:25;;;;;;;9.27;8.27;;;12.50;1.00;;;;;;5026954;28;20483;-63
2022/11/12 08:10:56;;;;;;;8.77;7.95;;;12.50;1.00;;;;;;5031487;28;20103;-62
2022/11/12 08:13:22;;;;;;;8.32;7.63;;;12.60;1.00;;;;;;5031591;28;20061;-63
2022/11/12 08:15:48;;;;;;;9.45;8.45;;;12.40;1.00;;;;;;5031176;28;20071;-62
2022/11/12 08:18:14;;;;;;;9.05;7.78;;;12.50;1.00;;;;;;5031538;28;20034;-62
2022/11/12 08:20:40;;;;;;;9.20;8.30;;;12.50;1.00;;;;;;5030281;28;20448;-63
2022/11/12 08:23:06;;;;;;;8.35;7.50;;;12.40;1.00;;;;;;5031412;28;20109;-63
2022/11/12 08:25:31;;;;;;;13.68;8.43;;;12.30;1.00;;;;;;5031436;28;20387;-63
2022/11/12 08:27:58;;;;;;;9.10;8.23;;;12.50;1.00;;;;;;5031185;28;20022;-62
2022/11/12 08:30:25;;;;;;;8.30;7.50;;;12.50;1.00;;;;;;5031279;28;20521;-62
2022/11/12 08:33:00;;;;;;;7.60;6.90;;;12.50;1.00;;;;;;5031101;28;20032;-63
2022/11/12 08:35:27;;;;;;;8.55;7.40;;;12.50;1.00;;;;;;5031684;28;20029;-63
2022/11/12 08:38:05;;;;;;;7.88;7.07;;;12.80;1.00;;;;;;5031197;28;20484;-63
2022/11/12 08:40:31;;;;;;;9.65;7.50;;;12.60;1.00;;;;;;5031499;28;20028;-62
2022/11/12 08:43:01;;;;;;;8.27;7.30;;;12.60;1.00;;;;;;5030869;28;20025;-62
2022/11/12 08:45:28;;;;;;;7.35;6.72;;;12.70;1.00;;;;;;5031270;28;20542;-62
2022/11/12 08:48:02;;;;;;;8.63;7.50;;;12.60;1.00;;;;;;5030836;28;20061;-62
2022/11/12 08:50:28;;;;;;;9.13;7.20;;;12.50;1.00;;;;;;5030904;28;20045;-62
2022/11/12 08:53:02;;;;;;;8.30;7.50;;;12.70;1.00;;;;;;5031147;28;20025;-63
2022/11/12 08:55:29;;;;;;;9.27;7.75;;;12.90;1.00;;;;;;5031472;28;20125;-62
2022/11/12 08:57:58;;;;;;;9.52;8.55;;;12.90;1.00;;;;;;5031288;28;20033;-62
2022/11/12 09:00:23;;;;;;;9.02;7.40;;;13.00;1.00;;;;;;5034493;28;20021;-62
2022/11/12 09:02:49;;;;;;;8.50;7.60;;;13.00;1.00;;;;;;5034751;28;20083;-62
2022/11/12 09:05:15;;;;;;;8.98;8.07;;;13.00;1.00;;;;;;5034657;28;20030;-62
2022/11/12 09:07:40;;;;;;;10.15;8.70;;;13.10;1.00;;;;;;5034924;28;20033;-63
2022/11/12 09:10:06;;;;;;;8.57;7.75;;;13.00;1.00;;;;;;5034650;28;20427;-63
2022/11/12 09:12:32;;;;;;;9.35;7.85;;;13.20;1.00;;;;;;5034802;28;20056;-63
2022/11/12 09:14:57;;;;;;;12.50;7.18;;;13.30;1.00;;;;;;5034666;28;20471;-62
2022/11/12 09:17:23;;;;;;;7.55;6.80;;;13.30;1.00;;;;;;5034636;28;20399;-62
2022/11/12 09:19:49;;;;;;;7.90;6.60;;;13.40;1.00;;;;;;5031440;28;20088;-62
2022/11/12 09:22:14;;;;;;;9.85;6.72;;;13.40;1.00;;;;;;5034497;28;20049;-62
2022/11/12 09:24:40;;;;;;;8.98;6.45;;;13.50;1.00;;;;;;5028193;28;20132;-62
2022/11/12 09:27:05;;;;;;;8.70;7.00;;;13.50;1.00;;;;;;5037652;28;20451;-63
2022/11/12 09:29:31;;;;;;;8.50;6.38;;;13.50;1.00;;;;;;5036561;28;20116;-63
2022/11/12 09:31:58;;;;;;;8.77;6.43;;;13.60;1.00;;;;;;5038479;28;20033;-63
2022/11/12 09:34:24;;;;;;;6.55;5.90;;;13.60;1.00;;;;;;5034536;28;20025;-63
2022/11/12 09:36:50;;;;;;;7.10;6.38;;;13.60;1.00;;;;;;5022224;28;20561;-63
2022/11/12 09:39:15;;;;;;;6.50;5.90;;;13.50;1.00;;;;;;5032971;28;20021;-63
2022/11/12 09:41:42;;;;;;;7.22;6.38;;;13.60;1.00;;;;;;5034185;28;20060;-63
2022/11/12 09:44:23;;;;;;;8.88;7.22;;;13.60;1.00;;;;;;5032873;28;20022;-63
2022/11/12 09:46:53;;;;;;;12.57;8.65;;;13.70;1.00;;;;;;5021734;28;20104;-62
2022/11/12 09:49:31;;;;;;;11.13;8.15;;;13.70;1.00;;;;;;5034296;28;20060;-63
2022/11/12 09:52:17;;;;;;;10.90;9.23;;;13.80;1.00;;;;;;5034242;28;20061;-62
2022/11/12 09:54:44;;;;;;;8.65;7.78;;;13.80;1.00;;;;;;5020946;28;20424;-62
2022/11/12 09:57:13;;;;;;;11.70;7.82;;;13.80;1.00;;;;;;5034099;28;20032;-62
2022/11/12 09:59:41;;;;;;;8.73;7.63;;;13.90;1.00;;;;;;5033971;28;20026;-62
2022/11/12 10:02:18;;;;;;;10.48;7.00;;;14.00;1.00;;;;;;5032475;28;20143;-62
2022/11/12 10:05:16;;;;;;;10.38;7.30;;;14.00;1.00;;;;;;5033630;28;20025;-63
2022/11/12 10:08:00;;;;;;;10.77;7.70;;;14.00;1.00;;;;;;5034105;28;20375;-62
2022/11/12 10:10:43;;;;;;;11.55;8.93;;;14.10;1.00;;;;;;5017936;28;20394;-62
2022/11/12 10:13:19;;;;;;;13.65;10.07;;;14.00;1.00;;;;;;5033578;28;20071;-62
2022/11/12 10:19:04;;;;;;;12.95;9.10;;;14.00;1.00;;;;;;5026357;28;20038;-62
2022/11/12 10:21:38;;;;;;;9.45;7.82;;;14.10;1.00;;;;;;5021001;28;20021;-63
2022/11/12 10:24:08;;;;;;;10.75;9.00;;;14.20;1.00;;;;;;5033300;28;20049;-63
2022/11/12 10:26:36;;;;;;;9.20;8.30;;;14.10;1.00;;;;;;5033650;28;20104;-62
2022/11/12 10:29:30;;;;;;;10.95;8.38;;;14.20;1.00;;;;;;5033460;28;20021;-62
2022/11/12 10:31:55;;;;;;;9.85;7.63;;;14.30;1.00;;;;;;5022964;28;20045;-63
2022/11/12 10:34:23;;;;;;;9.13;8.07;;;14.30;1.00;;;;;;5019327;28;20380;-62
2022/11/12 10:37:01;;;;;;;11.27;8.25;;;14.30;1.00;;;;;;5033176;28;20416;-62
2022/11/12 10:39:46;;;;;;;9.25;8.07;;;14.40;1.00;;;;;;5029542;28;20078;-62
2022/11/12 10:42:22;;;;;;;9.38;8.48;;;14.50;1.00;;;;;;5033303;28;20021;-62
2022/11/12 10:44:48;;;;;;;8.45;7.20;;;14.50;1.00;;;;;;5032987;28;20164;-62
2022/11/12 10:47:40;;;;;;;9.35;7.78;;;14.50;1.00;;;;;;5032881;28;20144;-62
2022/11/12 10:50:21;;;;;;;7.57;6.80;;;14.50;1.00;;;;;;5032876;28;20029;-62
2022/11/12 10:53:03;;;;;;;7.80;7.00;;;14.50;1.00;;;;;;5033040;28;20025;-62
2022/11/12 10:55:31;;;;;;;6.68;6.07;;;14.60;1.00;;;;;;5020468;28;20111;-62
2022/11/12 10:58:10;;;;;;;6.15;5.38;;;14.70;1.00;;;;;;5031476;28;20018;-62
2022/11/12 11:00:50;;;;;;;9.43;6.60;;;14.70;1.00;;;;;;5020262;28;20088;-62
2022/11/12 11:03:20;;;;;;;6.53;5.78;;;14.80;1.00;;;;;;5032903;28;20330;-62
2022/11/12 11:05:56;;;;;;;7.07;5.68;;;14.90;1.00;;;;;;5031442;28;20497;-62
2022/11/12 11:08:35;;;;;;;7.53;6.03;;;14.80;1.00;;;;;;5032705;28;20149;-62
2022/11/12 11:11:26;;;;;;;7.47;6.53;;;14.90;1.00;;;;;;5032300;28;20033;-62
2022/11/12 11:14:19;;;;;;;6.38;5.78;;;15.00;1.00;;;;;;5019074;28;20114;-63
2022/11/12 11:16:49;;;;;;;8.68;6.60;;;15.10;1.00;;;;;;5025219;28;20033;-62
2022/11/12 11:19:15;;;;;;;7.97;6.40;;;15.10;1.00;;;;;;5032596;28;20184;-62
2022/11/12 11:21:47;;;;;;;7.47;5.95;;;15.20;1.00;;;;;;5032224;28;20382;-62
2022/11/12 11:24:18;;;;;;;8.32;5.25;;;15.10;1.00;;;;;;5032624;28;20029;-63
2022/11/12 11:27:10;;;;;;;6.75;4.97;;;15.00;1.00;;;;;;5032327;28;20037;-62
2022/11/12 11:29:59;;;;;;;8.32;5.95;;;15.10;1.00;;;;;;5028537;28;20486;-62
2022/11/12 11:32:59;;;;;;;6.30;5.50;;;15.10;1.00;;;;;;5044960;28;20025;-62
2022/11/12 11:35:45;;;;;;;7.07;6.45;;;15.30;1.00;;;;;;5046634;28;20022;-62
2022/11/12 11:38:34;;;;;;;6.80;6.20;;;15.40;1.00;;;;;;5021362;28;20022;-62
2022/11/12 11:41:29;;;;;;;8.10;7.30;;;15.20;1.00;;;;;;5043064;28;20120;-62
2022/11/12 11:44:16;;;;;;;10.75;9.07;;;15.30;1.00;;;;;;5046633;28;20021;-62
2022/11/12 11:46:57;;;;;;;12.40;9.27;;;15.40;1.00;;;;;;5029511;28;20497;-62
2022/11/12 11:49:56;;;;;;;11.48;9.25;;;15.40;1.00;;;;;;5044347;28;20395;-62
2022/11/12 11:52:44;;;;;;;13.13;10.50;;;15.50;1.00;;;;;;5046801;28;20047;-62
2022/11/12 11:55:17;;;;;;;13.65;9.73;;;15.50;1.00;;;;;;5028964;28;20491;-61
2022/11/12 11:58:13;;;;;;;34.63;15.05;;;15.60;1.00;;;;;;5028439;28;20049;-61
2022/11/12 12:00:41;;;;;;;13.48;11.70;;;15.60;1.00;;;;;;5029536;28;20033;-61
2022/11/12 12:03:18;;;;;;;15.80;10.52;;;15.60;1.00;;;;;;5031105;28;20064;-61
2022/11/12 12:06:14;;;;;;;18.20;13.45;;;15.70;1.00;;;;;;5033839;28;20041;-61
2022/11/12 12:08:57;;;;;;;13.35;11.82;;;15.70;1.00;;;;;;5030770;28;20491;-62
2022/11/12 12:11:41;;;;;;;12.48;11.23;;;15.80;1.00;;;;;;5031597;28;20029;-61
2022/11/12 12:14:10;;;;;;;13.00;11.63;;;15.70;1.00;;;;;;5031405;28;20433;-61
2022/11/12 12:17:09;;;;;;;13.40;11.95;;;15.80;1.00;;;;;;5045677;28;20025;-61
2022/11/12 12:19:50;;;;;;;13.50;12.10;;;15.70;1.00;;;;;;5031591;28;20034;-61
2022/11/12 12:22:22;;;;;;;16.65;14.15;;;15.50;1.00;;;;;;5025987;28;20075;-61
2022/11/12 12:24:51;;;;;;;15.55;14.05;;;15.70;1.00;;;;;;5043482;28;20025;-61
2022/11/12 12:27:24;;;;;;;15.45;13.77;;;15.70;1.00;;;;;;5033000;28;20467;-61
2022/11/12 12:30:05;;;;;;;18.15;15.10;;;15.80;1.00;;;;;;5031748;28;20041;-61
2022/11/12 12:32:37;;;;;;;17.63;15.82;;;15.80;1.00;;;;;;5018944;28;20033;-61
2022/11/12 12:35:18;;;;;;;17.15;15.48;;;15.80;1.00;;;;;;5034518;28;20095;-61
2022/11/12 12:38:09;;;;;;;18.35;16.50;;;15.90;1.00;;;;;;5035566;28;20032;-61
2022/11/12 12:40:38;;;;;;;19.40;16.05;;;15.80;1.00;;;;;;5036584;28;20022;-61
2022/11/12 12:43:16;;;;;;;17.58;15.73;;;15.80;1.00;;;;;;5048209;28;20171;-61
2022/11/12 12:45:44;;;;;;;20.17;17.30;;;15.80;1.00;;;;;;5035415;28;20120;-61
2022/11/12 12:48:25;;;;;;;20.02;17.45;;;15.80;1.00;;;;;;5035051;28;20536;-61
2022/11/12 12:50:52;;;;;;;20.65;18.50;;;16.00;1.00;;;;;;5035163;28;20475;-61
2022/11/12 12:53:39;;;;;;;21.85;16.15;;;15.90;1.00;;;;;;5035179;28;20216;-61
2022/11/12 12:56:14;;;;;;;18.83;16.63;;;15.80;1.00;;;;;;5035210;28;20022;-61
2022/11/12 12:58:41;;;;;;;18.45;16.50;;;15.70;1.00;;;;;;5035004;28;20493;-61
2022/11/12 13:01:25;;;;;;;18.30;16.40;;;15.90;1.00;;;;;;5067020;28;20028;-61
2022/11/12 13:04:02;;;;;;;22.63;18.45;;;15.90;1.00;;;;;;5035129;28;20025;-61
2022/11/12 13:06:38;;;;;;;21.95;19.50;;;15.90;1.00;;;;;;5034954;28;20021;-61
2022/11/12 13:09:23;;;;;;;21.13;18.88;;;15.80;1.00;;;;;;5034894;28;20105;-61
2022/11/12 13:14:34;;;;;;;21.45;19.15;;;15.80;1.00;;;;;;5034805;28;19996;-61
2022/11/12 13:17:32;;;;;;;21.40;18.45;;;15.90;1.00;;;;;;5049092;28;20029;-61
2022/11/12 13:19:57;;;;;;;20.05;17.98;;;15.80;1.00;;;;;;5034461;28;20053;-61
2022/11/12 13:22:23;;;;;;;22.08;19.10;;;15.80;1.00;;;;;;5034479;28;20057;-61
2022/11/12 13:25:01;;;;;;;20.55;18.33;;;15.90;1.00;;;;;;5034804;28;20371;-61